Observations for Trim Patrick St
| Time | AQI | Temp °C | Hum % | Pres Pa | CO μg/m³ | H₂S μg/m³ | NO μg/m³ | NO₂ μg/m³ | O₃ μg/m³ | SO₂ μg/m³ | PM1 μg/m³ | PM2.5 μg/m³ | PM10 μg/m³ |
|---|---|---|---|---|---|---|---|---|---|---|---|---|---|
| Wednesday 5 August 2026 | |||||||||||||
| 05:57 | 2 | 14.9 | 75 | 38,460 | 0.16 | 0 | 2.88 | 8.87 | 56.48 | 0 | 2 | 4.84 | 5.32 |
| 05:56 | 2 | 14.9 | 75 | 38,460 | 0.16 | 0 | 2.86 | 8.37 | 48.13 | 0 | 2 | 4.82 | 5.31 |
| 05:55 | 2 | 14.9 | 75 | 38,460 | 0.15 | 0 | 2.78 | 9.43 | 55.75 | 0 | 2 | 4.82 | 5.31 |
| 05:54 | 2 | 14.9 | 75 | 38,460 | 0.15 | 0 | 2.85 | 9.96 | 46.01 | 0 | 2 | 4.84 | 5.33 |
| 05:53 | 2 | 14.9 | 75 | 38,460 | 0.15 | 0 | 2.88 | 10 | 51.16 | 0 | 2 | 4.82 | 5.31 |
| 05:52 | 2 | 14.9 | 75 | 38,460 | 0.14 | 0 | 2.9 | 9.81 | 55.24 | 0 | 2 | 4.82 | 5.31 |
| 05:51 | 2 | 14.9 | 75 | 38,460 | 0.16 | 0 | 2.88 | 10.84 | 51.11 | 0 | 2 | 4.83 | 5.31 |
| 05:50 | 2 | 14.9 | 75 | 38,460 | 0.15 | 0 | 2.95 | 10.6 | 58.6 | 0 | 2 | 4.86 | 5.35 |
| 05:49 | 2 | 14.9 | 75 | 38,460 | 0.15 | 0 | 2.95 | 8.5 | 45.49 | 0 | 2 | 4.86 | 5.35 |
| 05:48 | 2 | 14.9 | 75 | 38,460 | 0.15 | 0 | 2.9 | 10.69 | 56.02 | 0 | 2 | 4.83 | 5.31 |
| 05:47 | 2 | 14.9 | 75 | 38,460 | 0.14 | 0 | 2.87 | 11.14 | 56.73 | 0 | 2 | 4.83 | 5.31 |
| 05:46 | 2 | 14.9 | 75 | 38,460 | 0.16 | 0 | 2.8 | 11.47 | 58.34 | 0 | 2 | 4.82 | 5.3 |
| 05:45 | 2 | 14.9 | 75 | 38,460 | 0.16 | 0 | 2.92 | 11.54 | 63.26 | 0 | 2 | 4.84 | 5.33 |
| 05:44 | 2 | 14.9 | 75 | 38,460 | 0.15 | 0 | 2.86 | 8.68 | 53.24 | 0 | 2 | 4.86 | 5.34 |
| 05:43 | 2 | 14.9 | 75 | 38,460 | 0.15 | 0 | 2.88 | 7.11 | 45.12 | 0 | 2 | 4.85 | 5.33 |
| 05:42 | 2 | 14.9 | 75 | 38,460 | 0.15 | 0 | 2.86 | 10.35 | 58.23 | 0 | 2 | 5.55 | 6.1 |
| 05:41 | 2 | 15 | 75 | 38,460 | 0.15 | 0 | 2.89 | 11.42 | 62.98 | 0 | 2 | 4.83 | 5.31 |
| 05:40 | 2 | 15 | 75 | 38,460 | 0.16 | 0 | 2.86 | 7.25 | 50.75 | 0 | 2.86 | 5.56 | 6.12 |
| 05:39 | 2 | 14.9 | 75 | 38,460 | 0.16 | 0 | 3.01 | 8.87 | 48.69 | 0 | 2 | 6.96 | 7.66 |
| 05:38 | 2 | 15 | 75 | 38,460 | 0.18 | 0 | 2.93 | 9.51 | 56.74 | 0 | 3.71 | 6.98 | 7.68 |